sensor_id;sensor_type;location;lat;lon;timestamp;temperature;humidity
62583;DHT22;48641;51.676;5.808;2023-09-08T00:00:49;25.70;60.10
62583;DHT22;48641;51.676;5.808;2023-09-08T00:03:15;25.70;60.10
62583;DHT22;48641;51.676;5.808;2023-09-08T00:05:41;25.70;60.00
62583;DHT22;48641;51.676;5.808;2023-09-08T00:08:06;25.70;60.00
62583;DHT22;48641;51.676;5.808;2023-09-08T00:10:32;25.70;59.90
62583;DHT22;48641;51.676;5.808;2023-09-08T00:12:58;25.70;60.00
62583;DHT22;48641;51.676;5.808;2023-09-08T00:15:23;25.70;60.00
62583;DHT22;48641;51.676;5.808;2023-09-08T00:17:49;25.70;60.00
62583;DHT22;48641;51.676;5.808;2023-09-08T00:20:14;25.70;60.00
62583;DHT22;48641;51.676;5.808;2023-09-08T00:22:40;25.60;59.90
62583;DHT22;48641;51.676;5.808;2023-09-08T00:25:06;25.60;59.90
62583;DHT22;48641;51.676;5.808;2023-09-08T00:27:32;25.70;60.00
62583;DHT22;48641;51.676;5.808;2023-09-08T00:29:58;25.70;60.00
62583;DHT22;48641;51.676;5.808;2023-09-08T00:32:24;25.70;59.90
62583;DHT22;48641;51.676;5.808;2023-09-08T00:34:49;25.70;60.00
62583;DHT22;48641;51.676;5.808;2023-09-08T00:37:15;25.70;59.90
62583;DHT22;48641;51.676;5.808;2023-09-08T00:39:40;25.70;59.90
62583;DHT22;48641;51.676;5.808;2023-09-08T00:42:06;25.70;59.90
62583;DHT22;48641;51.676;5.808;2023-09-08T00:44:34;25.60;59.80
62583;DHT22;48641;51.676;5.808;2023-09-08T00:47:00;25.60;59.80
62583;DHT22;48641;51.676;5.808;2023-09-08T00:49:26;25.60;59.80
62583;DHT22;48641;51.676;5.808;2023-09-08T00:51:51;25.60;59.80
62583;DHT22;48641;51.676;5.808;2023-09-08T00:54:18;25.60;59.90
62583;DHT22;48641;51.676;5.808;2023-09-08T00:56:44;25.60;59.80
62583;DHT22;48641;51.676;5.808;2023-09-08T00:59:11;25.60;59.80
62583;DHT22;48641;51.676;5.808;2023-09-08T01:01:37;25.60;59.80
62583;DHT22;48641;51.676;5.808;2023-09-08T01:04:03;25.60;59.80
62583;DHT22;48641;51.676;5.808;2023-09-08T01:06:29;25.60;59.80
62583;DHT22;48641;51.676;5.808;2023-09-08T01:08:56;25.60;59.80
62583;DHT22;48641;51.676;5.808;2023-09-08T01:11:22;25.60;59.80
62583;DHT22;48641;51.676;5.808;2023-09-08T01:13:48;25.50;59.80
62583;DHT22;48641;51.676;5.808;2023-09-08T01:16:13;25.50;59.80
62583;DHT22;48641;51.676;5.808;2023-09-08T01:18:39;25.60;59.90
62583;DHT22;48641;51.676;5.808;2023-09-08T01:21:41;25.60;59.80
62583;DHT22;48641;51.676;5.808;2023-09-08T01:27:09;25.60;59.70
62583;DHT22;48641;51.676;5.808;2023-09-08T01:29:38;25.50;59.80
62583;DHT22;48641;51.676;5.808;2023-09-08T01:32:04;25.50;59.90
62583;DHT22;48641;51.676;5.808;2023-09-08T01:34:30;25.50;59.80
62583;DHT22;48641;51.676;5.808;2023-09-08T01:36:56;25.50;59.80
62583;DHT22;48641;51.676;5.808;2023-09-08T01:39:22;25.50;59.80
62583;DHT22;48641;51.676;5.808;2023-09-08T01:41:47;25.50;59.90
62583;DHT22;48641;51.676;5.808;2023-09-08T01:44:13;25.50;59.70
62583;DHT22;48641;51.676;5.808;2023-09-08T01:46:39;25.50;59.70
62583;DHT22;48641;51.676;5.808;2023-09-08T01:49:06;25.50;59.80
62583;DHT22;48641;51.676;5.808;2023-09-08T01:51:31;25.50;59.70
62583;DHT22;48641;51.676;5.808;2023-09-08T01:53:57;25.50;59.70
62583;DHT22;48641;51.676;5.808;2023-09-08T01:56:23;25.50;59.80
62583;DHT22;48641;51.676;5.808;2023-09-08T01:58:48;25.50;59.70
62583;DHT22;48641;51.676;5.808;2023-09-08T02:01:14;25.50;59.70
62583;DHT22;48641;51.676;5.808;2023-09-08T02:03:39;25.40;59.60
62583;DHT22;48641;51.676;5.808;2023-09-08T02:06:05;25.50;59.70
62583;DHT22;48641;51.676;5.808;2023-09-08T02:08:31;25.40;59.70
62583;DHT22;48641;51.676;5.808;2023-09-08T02:10:56;25.50;59.70
62583;DHT22;48641;51.676;5.808;2023-09-08T02:13:22;25.40;59.60
62583;DHT22;48641;51.676;5.808;2023-09-08T02:15:47;25.40;59.70
62583;DHT22;48641;51.676;5.808;2023-09-08T02:18:14;25.40;59.60
62583;DHT22;48641;51.676;5.808;2023-09-08T02:20:39;25.40;59.60
62583;DHT22;48641;51.676;5.808;2023-09-08T02:23:06;25.40;59.60
62583;DHT22;48641;51.676;5.808;2023-09-08T02:25:32;25.40;59.60
62583;DHT22;48641;51.676;5.808;2023-09-08T02:27:58;25.40;59.70
62583;DHT22;48641;51.676;5.808;2023-09-08T02:30:23;25.40;59.60
62583;DHT22;48641;51.676;5.808;2023-09-08T02:32:49;25.40;59.60
62583;DHT22;48641;51.676;5.808;2023-09-08T02:35:15;25.40;59.60
62583;DHT22;48641;51.676;5.808;2023-09-08T02:37:40;25.40;59.70
62583;DHT22;48641;51.676;5.808;2023-09-08T02:40:07;25.40;59.70
62583;DHT22;48641;51.676;5.808;2023-09-08T02:42:32;25.40;59.60
62583;DHT22;48641;51.676;5.808;2023-09-08T02:44:58;25.40;59.50
62583;DHT22;48641;51.676;5.808;2023-09-08T02:47:23;25.40;59.60
62583;DHT22;48641;51.676;5.808;2023-09-08T02:49:49;25.30;59.60
62583;DHT22;48641;51.676;5.808;2023-09-08T02:52:15;25.40;59.60
62583;DHT22;48641;51.676;5.808;2023-09-08T02:54:40;25.30;59.50
62583;DHT22;48641;51.676;5.808;2023-09-08T02:57:06;25.30;59.60
62583;DHT22;48641;51.676;5.808;2023-09-08T02:59:31;25.30;59.50
62583;DHT22;48641;51.676;5.808;2023-09-08T03:02:00;25.30;59.50
62583;DHT22;48641;51.676;5.808;2023-09-08T03:04:26;25.30;59.50
62583;DHT22;48641;51.676;5.808;2023-09-08T03:06:51;25.30;59.60
62583;DHT22;48641;51.676;5.808;2023-09-08T03:09:17;25.30;59.50
62583;DHT22;48641;51.676;5.808;2023-09-08T03:11:42;25.30;59.60
62583;DHT22;48641;51.676;5.808;2023-09-08T03:14:08;25.30;59.60
62583;DHT22;48641;51.676;5.808;2023-09-08T03:16:33;25.30;59.50
62583;DHT22;48641;51.676;5.808;2023-09-08T03:18:59;25.30;59.50
62583;DHT22;48641;51.676;5.808;2023-09-08T03:21:25;25.30;59.60
62583;DHT22;48641;51.676;5.808;2023-09-08T03:23:50;25.30;59.50
62583;DHT22;48641;51.676;5.808;2023-09-08T03:26:16;25.30;59.60
62583;DHT22;48641;51.676;5.808;2023-09-08T03:28:42;25.30;59.60
62583;DHT22;48641;51.676;5.808;2023-09-08T03:31:08;25.20;59.50
62583;DHT22;48641;51.676;5.808;2023-09-08T03:33:34;25.30;59.60
62583;DHT22;48641;51.676;5.808;2023-09-08T03:36:00;25.20;59.60
62583;DHT22;48641;51.676;5.808;2023-09-08T03:38:26;25.20;59.60
62583;DHT22;48641;51.676;5.808;2023-09-08T03:40:51;25.20;59.50
62583;DHT22;48641;51.676;5.808;2023-09-08T03:43:17;25.20;59.50
62583;DHT22;48641;51.676;5.808;2023-09-08T03:45:43;25.20;59.60
62583;DHT22;48641;51.676;5.808;2023-09-08T03:48:08;25.20;59.50
62583;DHT22;48641;51.676;5.808;2023-09-08T03:50:35;25.20;59.60
62583;DHT22;48641;51.676;5.808;2023-09-08T03:53:00;25.30;59.60
62583;DHT22;48641;51.676;5.808;2023-09-08T03:55:26;25.20;59.50
62583;DHT22;48641;51.676;5.808;2023-09-08T03:57:52;25.20;59.50
62583;DHT22;48641;51.676;5.808;2023-09-08T04:00:18;25.20;59.40
62583;DHT22;48641;51.676;5.808;2023-09-08T04:02:47;25.20;59.50
62583;DHT22;48641;51.676;5.808;2023-09-08T04:05:12;25.20;59.50
62583;DHT22;48641;51.676;5.808;2023-09-08T04:07:38;25.10;59.70
62583;DHT22;48641;51.676;5.808;2023-09-08T04:10:04;25.10;59.70
62583;DHT22;48641;51.676;5.808;2023-09-08T04:12:29;25.10;59.60
62583;DHT22;48641;51.676;5.808;2023-09-08T04:14:55;25.10;59.70
62583;DHT22;48641;51.676;5.808;2023-09-08T04:17:20;25.10;59.60
62583;DHT22;48641;51.676;5.808;2023-09-08T04:19:46;25.10;59.60
62583;DHT22;48641;51.676;5.808;2023-09-08T04:22:11;25.10;59.60
62583;DHT22;48641;51.676;5.808;2023-09-08T04:24:37;25.10;59.60
62583;DHT22;48641;51.676;5.808;2023-09-08T04:27:03;25.10;59.50
62583;DHT22;48641;51.676;5.808;2023-09-08T04:29:29;25.10;60.10
62583;DHT22;48641;51.676;5.808;2023-09-08T04:31:55;25.10;59.50
62583;DHT22;48641;51.676;5.808;2023-09-08T04:34:20;25.10;59.50
62583;DHT22;48641;51.676;5.808;2023-09-08T04:36:46;25.10;59.50
62583;DHT22;48641;51.676;5.808;2023-09-08T04:39:12;25.10;59.50
62583;DHT22;48641;51.676;5.808;2023-09-08T04:41:37;25.10;59.50
62583;DHT22;48641;51.676;5.808;2023-09-08T04:44:04;25.10;59.50
62583;DHT22;48641;51.676;5.808;2023-09-08T04:46:30;25.10;59.50
62583;DHT22;48641;51.676;5.808;2023-09-08T04:48:56;25.10;59.50
62583;DHT22;48641;51.676;5.808;2023-09-08T04:51:21;25.10;59.70
62583;DHT22;48641;51.676;5.808;2023-09-08T04:53:47;25.10;59.40
62583;DHT22;48641;51.676;5.808;2023-09-08T04:56:14;25.10;59.50
62583;DHT22;48641;51.676;5.808;2023-09-08T04:58:42;25.10;59.50
62583;DHT22;48641;51.676;5.808;2023-09-08T05:01:07;25.10;59.50
62583;DHT22;48641;51.676;5.808;2023-09-08T05:03:33;25.00;59.30
62583;DHT22;48641;51.676;5.808;2023-09-08T05:05:59;25.00;59.40
62583;DHT22;48641;51.676;5.808;2023-09-08T05:08:26;25.00;59.20
62583;DHT22;48641;51.676;5.808;2023-09-08T05:10:52;25.00;59.20
62583;DHT22;48641;51.676;5.808;2023-09-08T05:13:17;25.00;59.10
62583;DHT22;48641;51.676;5.808;2023-09-08T05:15:43;25.00;59.10
62583;DHT22;48641;51.676;5.808;2023-09-08T05:18:13;25.00;59.00
62583;DHT22;48641;51.676;5.808;2023-09-08T05:20:39;25.00;59.00
62583;DHT22;48641;51.676;5.808;2023-09-08T05:23:04;24.90;58.90
62583;DHT22;48641;51.676;5.808;2023-09-08T05:25:31;25.00;58.90
62583;DHT22;48641;51.676;5.808;2023-09-08T05:27:56;24.90;58.80
62583;DHT22;48641;51.676;5.808;2023-09-08T05:30:22;24.90;58.80
62583;DHT22;48641;51.676;5.808;2023-09-08T05:32:48;24.90;58.70
62583;DHT22;48641;51.676;5.808;2023-09-08T05:35:13;24.90;58.80
62583;DHT22;48641;51.676;5.808;2023-09-08T05:37:39;24.90;58.70
62583;DHT22;48641;51.676;5.808;2023-09-08T05:40:07;24.90;58.60
62583;DHT22;48641;51.676;5.808;2023-09-08T05:42:33;24.90;58.60
62583;DHT22;48641;51.676;5.808;2023-09-08T05:44:58;24.90;58.60
62583;DHT22;48641;51.676;5.808;2023-09-08T05:47:24;24.90;58.70
62583;DHT22;48641;51.676;5.808;2023-09-08T05:49:49;24.80;58.50
62583;DHT22;48641;51.676;5.808;2023-09-08T05:52:15;24.90;58.50
62583;DHT22;48641;51.676;5.808;2023-09-08T05:54:40;24.80;58.40
62583;DHT22;48641;51.676;5.808;2023-09-08T05:57:06;24.80;58.40
62583;DHT22;48641;51.676;5.808;2023-09-08T05:59:31;24.80;58.40
62583;DHT22;48641;51.676;5.808;2023-09-08T06:01:57;24.80;58.30
62583;DHT22;48641;51.676;5.808;2023-09-08T06:04:23;24.70;58.30
62583;DHT22;48641;51.676;5.808;2023-09-08T06:06:48;24.80;58.40
62583;DHT22;48641;51.676;5.808;2023-09-08T06:09:14;24.80;58.30
62583;DHT22;48641;51.676;5.808;2023-09-08T06:11:42;24.80;58.30
62583;DHT22;48641;51.676;5.808;2023-09-08T06:14:07;24.80;58.40
62583;DHT22;48641;51.676;5.808;2023-09-08T06:16:33;24.70;58.20
62583;DHT22;48641;51.676;5.808;2023-09-08T06:18:59;24.80;58.30
62583;DHT22;48641;51.676;5.808;2023-09-08T06:21:25;24.80;58.40
62583;DHT22;48641;51.676;5.808;2023-09-08T06:23:51;24.80;58.40
62583;DHT22;48641;51.676;5.808;2023-09-08T06:26:17;24.70;58.20
62583;DHT22;48641;51.676;5.808;2023-09-08T06:28:42;24.70;58.30
62583;DHT22;48641;51.676;5.808;2023-09-08T06:31:09;24.70;58.20
62583;DHT22;48641;51.676;5.808;2023-09-08T06:33:35;24.70;58.30
62583;DHT22;48641;51.676;5.808;2023-09-08T06:36:00;24.70;58.30
62583;DHT22;48641;51.676;5.808;2023-09-08T06:38:29;24.70;58.20
62583;DHT22;48641;51.676;5.808;2023-09-08T06:40:57;24.70;58.20
62583;DHT22;48641;51.676;5.808;2023-09-08T06:43:22;24.60;58.20
62583;DHT22;48641;51.676;5.808;2023-09-08T06:45:48;24.70;58.40
62583;DHT22;48641;51.676;5.808;2023-09-08T06:48:14;24.70;58.40
62583;DHT22;48641;51.676;5.808;2023-09-08T06:50:40;24.60;58.30
62583;DHT22;48641;51.676;5.808;2023-09-08T06:53:06;24.70;58.20
62583;DHT22;48641;51.676;5.808;2023-09-08T06:55:31;24.70;58.20
62583;DHT22;48641;51.676;5.808;2023-09-08T06:57:57;24.60;58.10
62583;DHT22;48641;51.676;5.808;2023-09-08T07:00:23;24.70;58.20
62583;DHT22;48641;51.676;5.808;2023-09-08T07:02:48;24.70;58.20
62583;DHT22;48641;51.676;5.808;2023-09-08T07:05:17;24.60;58.20
62583;DHT22;48641;51.676;5.808;2023-09-08T07:07:44;24.70;58.30
62583;DHT22;48641;51.676;5.808;2023-09-08T07:10:10;24.60;58.30
62583;DHT22;48641;51.676;5.808;2023-09-08T07:12:35;24.70;58.40
62583;DHT22;48641;51.676;5.808;2023-09-08T07:15:01;24.60;58.30
62583;DHT22;48641;51.676;5.808;2023-09-08T07:17:27;24.60;58.50
62583;DHT22;48641;51.676;5.808;2023-09-08T07:19:52;24.60;58.40
62583;DHT22;48641;51.676;5.808;2023-09-08T07:22:18;24.60;58.50
62583;DHT22;48641;51.676;5.808;2023-09-08T07:24:44;24.60;58.40
62583;DHT22;48641;51.676;5.808;2023-09-08T07:27:10;24.60;58.50
62583;DHT22;48641;51.676;5.808;2023-09-08T07:29:38;24.60;58.50
62583;DHT22;48641;51.676;5.808;2023-09-08T07:32:04;24.60;58.60
62583;DHT22;48641;51.676;5.808;2023-09-08T07:34:29;24.60;58.60
62583;DHT22;48641;51.676;5.808;2023-09-08T07:36:55;24.60;58.60
62583;DHT22;48641;51.676;5.808;2023-09-08T07:39:20;24.60;58.60
62583;DHT22;48641;51.676;5.808;2023-09-08T07:41:46;24.60;58.60
62583;DHT22;48641;51.676;5.808;2023-09-08T07:44:12;24.60;58.60
62583;DHT22;48641;51.676;5.808;2023-09-08T07:46:38;24.60;58.60
62583;DHT22;48641;51.676;5.808;2023-09-08T07:49:04;24.60;58.70
62583;DHT22;48641;51.676;5.808;2023-09-08T07:51:30;24.60;58.60
62583;DHT22;48641;51.676;5.808;2023-09-08T07:53:56;24.60;58.80
62583;DHT22;48641;51.676;5.808;2023-09-08T07:56:22;24.60;58.70
62583;DHT22;48641;51.676;5.808;2023-09-08T07:58:47;24.60;58.70
62583;DHT22;48641;51.676;5.808;2023-09-08T08:01:14;24.60;58.70
62583;DHT22;48641;51.676;5.808;2023-09-08T08:03:40;24.60;58.80
62583;DHT22;48641;51.676;5.808;2023-09-08T08:06:06;24.60;58.70
62583;DHT22;48641;51.676;5.808;2023-09-08T08:08:32;24.60;58.70
62583;DHT22;48641;51.676;5.808;2023-09-08T08:10:58;24.60;58.80
62583;DHT22;48641;51.676;5.808;2023-09-08T08:13:24;24.60;58.90
62583;DHT22;48641;51.676;5.808;2023-09-08T08:15:49;24.60;58.80
62583;DHT22;48641;51.676;5.808;2023-09-08T08:18:15;24.60;58.80
62583;DHT22;48641;51.676;5.808;2023-09-08T08:20:41;24.60;58.90
62583;DHT22;48641;51.676;5.808;2023-09-08T08:23:07;24.60;58.90
62583;DHT22;48641;51.676;5.808;2023-09-08T08:25:33;24.60;59.00
62583;DHT22;48641;51.676;5.808;2023-09-08T08:27:59;24.50;58.80
62583;DHT22;48641;51.676;5.808;2023-09-08T08:30:28;24.60;59.00
62583;DHT22;48641;51.676;5.808;2023-09-08T08:32:54;24.60;59.00
62583;DHT22;48641;51.676;5.808;2023-09-08T08:35:20;24.50;58.90
62583;DHT22;48641;51.676;5.808;2023-09-08T08:37:46;24.60;59.60
62583;DHT22;48641;51.676;5.808;2023-09-08T08:40:12;24.50;59.40
62583;DHT22;48641;51.676;5.808;2023-09-08T08:42:38;24.50;59.30
62583;DHT22;48641;51.676;5.808;2023-09-08T08:45:05;24.60;59.40
62583;DHT22;48641;51.676;5.808;2023-09-08T08:47:31;24.60;59.40
62583;DHT22;48641;51.676;5.808;2023-09-08T08:49:58;24.60;59.40
62583;DHT22;48641;51.676;5.808;2023-09-08T08:52:27;24.60;59.30
62583;DHT22;48641;51.676;5.808;2023-09-08T08:54:53;24.50;59.30
62583;DHT22;48641;51.676;5.808;2023-09-08T08:57:21;24.50;59.10
62583;DHT22;48641;51.676;5.808;2023-09-08T08:59:47;24.50;59.20
62583;DHT22;48641;51.676;5.808;2023-09-08T09:02:14;24.50;59.30
62583;DHT22;48641;51.676;5.808;2023-09-08T09:04:40;24.60;59.30
62583;DHT22;48641;51.676;5.808;2023-09-08T09:07:07;24.50;59.40
62583;DHT22;48641;51.676;5.808;2023-09-08T09:09:33;24.50;59.40
62583;DHT22;48641;51.676;5.808;2023-09-08T09:11:58;24.50;59.30
62583;DHT22;48641;51.676;5.808;2023-09-08T09:14:25;24.50;59.40
62583;DHT22;48641;51.676;5.808;2023-09-08T09:16:50;24.50;59.60
62583;DHT22;48641;51.676;5.808;2023-09-08T09:19:21;24.60;59.30
62583;DHT22;48641;51.676;5.808;2023-09-08T09:21:53;24.60;59.30
62583;DHT22;48641;51.676;5.808;2023-09-08T09:24:38;24.60;59.30
62583;DHT22;48641;51.676;5.808;2023-09-08T09:27:07;24.60;59.30
62583;DHT22;48641;51.676;5.808;2023-09-08T09:29:34;24.50;59.30
62583;DHT22;48641;51.676;5.808;2023-09-08T09:32:06;24.50;59.30
62583;DHT22;48641;51.676;5.808;2023-09-08T09:34:34;24.50;59.30
62583;DHT22;48641;51.676;5.808;2023-09-08T09:37:00;24.50;59.30
62583;DHT22;48641;51.676;5.808;2023-09-08T09:39:26;24.50;59.40
62583;DHT22;48641;51.676;5.808;2023-09-08T09:41:56;24.60;59.40
62583;DHT22;48641;51.676;5.808;2023-09-08T09:44:23;24.60;60.00
62583;DHT22;48641;51.676;5.808;2023-09-08T09:46:52;24.50;60.10
62583;DHT22;48641;51.676;5.808;2023-09-08T09:49:18;24.60;60.10
62583;DHT22;48641;51.676;5.808;2023-09-08T09:51:48;24.60;60.10
62583;DHT22;48641;51.676;5.808;2023-09-08T09:54:15;24.60;60.20
62583;DHT22;48641;51.676;5.808;2023-09-08T09:56:41;24.60;60.40
62583;DHT22;48641;51.676;5.808;2023-09-08T09:59:11;24.60;60.70
62583;DHT22;48641;51.676;5.808;2023-09-08T10:01:39;24.60;60.70
62583;DHT22;48641;51.676;5.808;2023-09-08T10:04:05;24.60;60.50
62583;DHT22;48641;51.676;5.808;2023-09-08T10:06:32;24.70;62.50
62583;DHT22;48641;51.676;5.808;2023-09-08T10:09:03;24.80;62.00
62583;DHT22;48641;51.676;5.808;2023-09-08T10:11:47;24.90;61.80
62583;DHT22;48641;51.676;5.808;2023-09-08T10:14:15;24.90;61.40
62583;DHT22;48641;51.676;5.808;2023-09-08T10:16:44;24.90;61.30
62583;DHT22;48641;51.676;5.808;2023-09-08T10:19:11;24.90;61.30
62583;DHT22;48641;51.676;5.808;2023-09-08T10:21:45;24.90;61.20
62583;DHT22;48641;51.676;5.808;2023-09-08T10:24:17;24.90;61.00
62583;DHT22;48641;51.676;5.808;2023-09-08T10:26:48;24.90;60.90
62583;DHT22;48641;51.676;5.808;2023-09-08T10:29:16;24.90;60.60
62583;DHT22;48641;51.676;5.808;2023-09-08T10:31:43;24.90;62.10
62583;DHT22;48641;51.676;5.808;2023-09-08T10:34:10;25.00;61.70
62583;DHT22;48641;51.676;5.808;2023-09-08T10:36:35;25.00;61.40
62583;DHT22;48641;51.676;5.808;2023-09-08T10:39:27;25.00;61.00
62583;DHT22;48641;51.676;5.808;2023-09-08T10:44:41;25.00;60.80
62583;DHT22;48641;51.676;5.808;2023-09-08T10:47:07;25.00;60.80
62583;DHT22;48641;51.676;5.808;2023-09-08T10:49:36;25.00;60.80
62583;DHT22;48641;51.676;5.808;2023-09-08T10:52:11;24.90;60.70
62583;DHT22;48641;51.676;5.808;2023-09-08T10:54:51;25.00;60.60
62583;DHT22;48641;51.676;5.808;2023-09-08T10:57:18;25.00;60.80
62583;DHT22;48641;51.676;5.808;2023-09-08T11:05:06;25.00;60.60
62583;DHT22;48641;51.676;5.808;2023-09-08T11:07:32;25.00;60.70
62583;DHT22;48641;51.676;5.808;2023-09-08T11:09:59;25.00;60.60
62583;DHT22;48641;51.676;5.808;2023-09-08T11:12:28;25.00;60.80
62583;DHT22;48641;51.676;5.808;2023-09-08T11:14:54;25.10;60.90
62583;DHT22;48641;51.676;5.808;2023-09-08T11:17:23;25.20;60.90
62583;DHT22;48641;51.676;5.808;2023-09-08T11:19:50;25.20;60.70
62583;DHT22;48641;51.676;5.808;2023-09-08T11:22:21;25.20;60.50
62583;DHT22;48641;51.676;5.808;2023-09-08T11:24:48;25.20;60.60
62583;DHT22;48641;51.676;5.808;2023-09-08T11:27:14;25.20;60.70
62583;DHT22;48641;51.676;5.808;2023-09-08T11:29:40;25.20;60.60
62583;DHT22;48641;51.676;5.808;2023-09-08T11:32:07;25.20;60.50
62583;DHT22;48641;51.676;5.808;2023-09-08T11:34:37;25.30;60.60
62583;DHT22;48641;51.676;5.808;2023-09-08T11:37:10;25.30;60.50
62583;DHT22;48641;51.676;5.808;2023-09-08T11:39:42;25.30;60.40
62583;DHT22;48641;51.676;5.808;2023-09-08T11:42:09;25.30;60.50
62583;DHT22;48641;51.676;5.808;2023-09-08T11:44:35;25.30;60.40
62583;DHT22;48641;51.676;5.808;2023-09-08T11:47:09;25.30;60.40
62583;DHT22;48641;51.676;5.808;2023-09-08T11:49:41;25.30;60.30
62583;DHT22;48641;51.676;5.808;2023-09-08T11:52:09;25.30;60.20
62583;DHT22;48641;51.676;5.808;2023-09-08T11:54:38;25.30;60.20
62583;DHT22;48641;51.676;5.808;2023-09-08T11:57:04;25.40;60.20
62583;DHT22;48641;51.676;5.808;2023-09-08T11:59:34;25.40;60.10
62583;DHT22;48641;51.676;5.808;2023-09-08T12:02:00;25.40;60.10
62583;DHT22;48641;51.676;5.808;2023-09-08T12:04:26;25.40;60.10
62583;DHT22;48641;51.676;5.808;2023-09-08T12:06:53;25.40;60.00
62583;DHT22;48641;51.676;5.808;2023-09-08T12:09:21;25.40;60.00
62583;DHT22;48641;51.676;5.808;2023-09-08T12:11:47;25.40;60.00
62583;DHT22;48641;51.676;5.808;2023-09-08T12:14:14;25.40;60.10
62583;DHT22;48641;51.676;5.808;2023-09-08T12:16:41;25.50;60.20
62583;DHT22;48641;51.676;5.808;2023-09-08T12:19:07;25.40;60.10
62583;DHT22;48641;51.676;5.808;2023-09-08T12:21:54;25.50;60.10
62583;DHT22;48641;51.676;5.808;2023-09-08T12:24:44;25.50;60.00
62583;DHT22;48641;51.676;5.808;2023-09-08T12:27:06;25.50;60.10
62583;DHT22;48641;51.676;5.808;2023-09-08T12:29:32;25.50;60.10
62583;DHT22;48641;51.676;5.808;2023-09-08T12:31:57;25.50;60.20
62583;DHT22;48641;51.676;5.808;2023-09-08T12:34:23;25.50;60.10
62583;DHT22;48641;51.676;5.808;2023-09-08T12:36:48;25.60;60.10
62583;DHT22;48641;51.676;5.808;2023-09-08T12:39:14;25.60;60.00
62583;DHT22;48641;51.676;5.808;2023-09-08T12:41:39;25.60;60.00
62583;DHT22;48641;51.676;5.808;2023-09-08T12:44:05;25.60;59.90
62583;DHT22;48641;51.676;5.808;2023-09-08T12:46:31;25.60;59.90
62583;DHT22;48641;51.676;5.808;2023-09-08T12:48:58;25.60;59.90
62583;DHT22;48641;51.676;5.808;2023-09-08T12:51:23;25.60;59.90
62583;DHT22;48641;51.676;5.808;2023-09-08T12:53:49;25.60;59.90
62583;DHT22;48641;51.676;5.808;2023-09-08T12:56:15;25.60;59.90
62583;DHT22;48641;51.676;5.808;2023-09-08T12:58:40;25.70;60.00
62583;DHT22;48641;51.676;5.808;2023-09-08T13:01:06;25.60;59.90
62583;DHT22;48641;51.676;5.808;2023-09-08T13:03:32;25.70;60.00
62583;DHT22;48641;51.676;5.808;2023-09-08T13:05:57;25.70;60.10
62583;DHT22;48641;51.676;5.808;2023-09-08T13:08:23;25.70;60.00
62583;DHT22;48641;51.676;5.808;2023-09-08T13:10:49;25.70;60.10
62583;DHT22;48641;51.676;5.808;2023-09-08T13:13:14;25.70;60.00
62583;DHT22;48641;51.676;5.808;2023-09-08T13:15:40;25.80;60.10
62583;DHT22;48641;51.676;5.808;2023-09-08T13:18:06;25.70;60.00
62583;DHT22;48641;51.676;5.808;2023-09-08T13:20:31;25.80;60.00
62583;DHT22;48641;51.676;5.808;2023-09-08T13:22:57;25.70;60.00
62583;DHT22;48641;51.676;5.808;2023-09-08T13:25:25;25.80;60.10
62583;DHT22;48641;51.676;5.808;2023-09-08T13:27:51;25.70;60.00
62583;DHT22;48641;51.676;5.808;2023-09-08T13:30:17;25.80;60.10
62583;DHT22;48641;51.676;5.808;2023-09-08T13:32:43;25.80;60.10
62583;DHT22;48641;51.676;5.808;2023-09-08T13:35:09;25.80;60.10
62583;DHT22;48641;51.676;5.808;2023-09-08T13:37:35;25.80;60.10
62583;DHT22;48641;51.676;5.808;2023-09-08T13:40:03;25.80;60.20
62583;DHT22;48641;51.676;5.808;2023-09-08T13:42:29;25.90;60.30
62583;DHT22;48641;51.676;5.808;2023-09-08T13:44:55;25.90;60.30
62583;DHT22;48641;51.676;5.808;2023-09-08T13:47:20;25.90;60.30
62583;DHT22;48641;51.676;5.808;2023-09-08T13:49:46;25.90;60.30
62583;DHT22;48641;51.676;5.808;2023-09-08T13:52:12;25.90;60.20
62583;DHT22;48641;51.676;5.808;2023-09-08T13:54:37;26.00;60.20
62583;DHT22;48641;51.676;5.808;2023-09-08T13:57:04;25.90;60.20
62583;DHT22;48641;51.676;5.808;2023-09-08T13:59:30;26.00;60.20
62583;DHT22;48641;51.676;5.808;2023-09-08T14:01:56;26.00;60.20
62583;DHT22;48641;51.676;5.808;2023-09-08T14:04:27;26.00;60.30
62583;DHT22;48641;51.676;5.808;2023-09-08T14:06:53;26.00;60.40
62583;DHT22;48641;51.676;5.808;2023-09-08T14:09:19;26.00;60.50
62583;DHT22;48641;51.676;5.808;2023-09-08T14:11:44;26.00;60.40
62583;DHT22;48641;51.676;5.808;2023-09-08T14:14:10;26.00;60.40
62583;DHT22;48641;51.676;5.808;2023-09-08T14:16:36;26.00;60.40
62583;DHT22;48641;51.676;5.808;2023-09-08T14:19:01;26.00;60.40
62583;DHT22;48641;51.676;5.808;2023-09-08T14:21:27;26.00;60.40
62583;DHT22;48641;51.676;5.808;2023-09-08T14:23:53;26.00;61.30
62583;DHT22;48641;51.676;5.808;2023-09-08T14:26:18;26.10;60.60
62583;DHT22;48641;51.676;5.808;2023-09-08T14:28:46;26.10;60.50
62583;DHT22;48641;51.676;5.808;2023-09-08T14:31:11;26.10;60.50
62583;DHT22;48641;51.676;5.808;2023-09-08T14:33:37;26.10;60.50
62583;DHT22;48641;51.676;5.808;2023-09-08T14:36:02;26.10;60.40
62583;DHT22;48641;51.676;5.808;2023-09-08T14:38:29;26.10;60.60
62583;DHT22;48641;51.676;5.808;2023-09-08T14:41:01;26.10;60.50
62583;DHT22;48641;51.676;5.808;2023-09-08T14:43:28;26.10;60.50
62583;DHT22;48641;51.676;5.808;2023-09-08T14:45:54;26.10;60.50
62583;DHT22;48641;51.676;5.808;2023-09-08T14:48:22;26.10;60.50
62583;DHT22;48641;51.676;5.808;2023-09-08T14:50:48;26.10;60.60
62583;DHT22;48641;51.676;5.808;2023-09-08T14:53:14;26.10;60.50
62583;DHT22;48641;51.676;5.808;2023-09-08T14:55:39;26.10;60.50
62583;DHT22;48641;51.676;5.808;2023-09-08T14:58:05;26.10;60.60
62583;DHT22;48641;51.676;5.808;2023-09-08T15:00:31;26.10;60.60
62583;DHT22;48641;51.676;5.808;2023-09-08T15:02:57;26.10;60.60
62583;DHT22;48641;51.676;5.808;2023-09-08T15:05:23;26.20;60.60
62583;DHT22;48641;51.676;5.808;2023-09-08T15:07:48;26.20;60.60
62583;DHT22;48641;51.676;5.808;2023-09-08T15:10:14;26.20;60.60
62583;DHT22;48641;51.676;5.808;2023-09-08T15:12:39;26.20;60.60
62583;DHT22;48641;51.676;5.808;2023-09-08T15:15:05;26.20;60.60
62583;DHT22;48641;51.676;5.808;2023-09-08T15:17:31;26.20;60.70
62583;DHT22;48641;51.676;5.808;2023-09-08T15:19:57;26.20;60.70
62583;DHT22;48641;51.676;5.808;2023-09-08T15:22:25;26.20;60.70
62583;DHT22;48641;51.676;5.808;2023-09-08T15:24:50;26.10;60.60
62583;DHT22;48641;51.676;5.808;2023-09-08T15:27:16;26.20;60.70
62583;DHT22;48641;51.676;5.808;2023-09-08T15:29:41;26.10;60.60
62583;DHT22;48641;51.676;5.808;2023-09-08T15:32:07;26.20;60.80
62583;DHT22;48641;51.676;5.808;2023-09-08T15:34:33;26.10;60.70
62583;DHT22;48641;51.676;5.808;2023-09-08T15:37:00;26.10;60.70